メインページ
METAR-TAF:

METAR-TAF

空港 :

イニャンバネ, モザンビーク

緯度: 23-52S, 経度: 035-23E, 海抜: 14m

現時点の気象観測

当レポートは6時間18分前の19:00(UTC)に作成
南/南西の風 3kt
気温 21°C
湿度 94%
気圧 1027 hPa
視程: 5000m
高度1000ftの雲はほとんどない
高度2000ftの雲は散在している
高度2500ftの雲は散在している
雨, 霧雨,

METAR: FQIN 231900Z 21003KT 5000 RADZ FEW010 SCT020 SCT025 21/20 Q1027

時間: 03:18 (01:18 UTC)

予報

当レポートは9時間18分前の16:00(UTC)に作成
予報は23日の 18時(UTC)から 24日の 18時(UTC)まで有効
南西の風 6kt
視程10km以上
高度2000ftの雲は散在している
確率 30% :
23日の 18時(UTC)から 23日の 24時(UTC)まで一時的に
視程: 5000m
高度1500ftの雲は散在している
雨, 霧雨
24日の 09時(UTC)から 24日の 11時(UTC)まで徐々に
東/南東の風 7kt

TAF: FQIN 231600Z 2318/2418 22006KT 9999 SCT020 TX27/2413Z TN19/2402Z PROB30 TEMPO 2318/2324 5000 RADZ SCT015 BECMG 2409/2411 11007KT

4,000以上の空港の気象観測と天気予報(METAR報とTAF報)

利用可能な観測所は地図上に黄色い丸と赤い丸で示す。

丸の上にカーソルを重ねると観測所名を参照できる。

次にクリックすると気象観測と天気予報を参照できる。

マップの切り替え:黒色「×」印の緑ボタンをクリックして拡大、「-」印の緑ボタンをクリックして縮小、緑色の三角印をクリックして隣りの地図に切り替え


METAR-TAF: